createdAt,value
2023-05-07T00:02:12.754Z,98070.44
2023-05-07T00:04:40.190Z,98062.81
2023-05-07T00:07:07.152Z,98069.09
2023-05-07T00:09:34.386Z,98069.66
2023-05-07T00:12:01.538Z,98067.66
2023-05-07T00:14:28.494Z,98070.88
2023-05-07T00:16:55.375Z,98071.66
2023-05-07T00:19:22.279Z,98068.22
2023-05-07T00:21:49.544Z,98061.19
2023-05-07T00:24:16.415Z,98065.84
2023-05-07T00:26:43.340Z,98070.06
2023-05-07T00:29:10.210Z,98070.59
2023-05-07T00:31:37.175Z,98068.16
2023-05-07T00:34:04.339Z,98067.78
2023-05-07T00:36:31.742Z,98065.59
2023-05-07T00:39:01.552Z,98070.66
2023-05-07T00:41:28.455Z,98073.78
2023-05-07T00:43:55.316Z,98065.94
2023-05-07T00:46:22.552Z,98070.94
2023-05-07T00:48:51.237Z,98069.38
2023-05-07T00:51:18.967Z,98071.84
2023-05-07T00:53:46.437Z,98069.56
2023-05-07T00:56:13.368Z,98071.00
2023-05-07T00:58:40.436Z,98072.56
2023-05-07T01:01:07.492Z,98070.16
2023-05-07T01:03:34.477Z,98066.66
2023-05-07T01:06:03.002Z,98062.25
2023-05-07T01:08:31.184Z,98068.53
2023-05-07T01:10:58.632Z,98069.75
2023-05-07T01:13:26.069Z,98072.31
2023-05-07T01:15:53.197Z,98068.53
2023-05-07T01:18:20.098Z,98065.03
2023-05-07T01:20:47.071Z,98060.53
2023-05-07T01:23:14.045Z,98055.66
2023-05-07T01:25:40.884Z,98056.63
2023-05-07T01:28:07.963Z,98066.25
2023-05-07T01:30:36.216Z,98060.28
2023-05-07T01:33:08.085Z,98058.72
2023-05-07T01:35:46.939Z,98063.38
2023-05-07T01:38:14.232Z,98055.44
2023-05-07T01:40:41.146Z,98050.44
2023-05-07T01:43:08.238Z,98052.75
2023-05-07T01:45:35.787Z,98047.91
2023-05-07T01:48:04.109Z,98039.50
2023-05-07T01:50:32.160Z,98034.75
2023-05-07T01:52:59.044Z,98038.53
2023-05-07T01:55:26.016Z,98038.66
2023-05-07T01:57:52.886Z,98045.34
2023-05-07T02:00:20.325Z,98045.16
2023-05-07T02:02:47.456Z,98051.50
2023-05-07T02:05:14.485Z,98053.53
2023-05-07T02:07:41.306Z,98049.97
2023-05-07T02:10:08.819Z,98066.19
2023-05-07T02:12:35.964Z,98052.56
2023-05-07T02:15:02.876Z,98049.47
2023-05-07T02:17:33.013Z,98051.63
2023-05-07T02:20:00.931Z,98050.81
2023-05-07T02:22:27.771Z,98050.91
2023-05-07T02:24:54.626Z,98049.59
2023-05-07T02:27:21.478Z,98053.78
2023-05-07T02:29:48.357Z,98047.81
2023-05-07T02:32:15.228Z,98047.94
2023-05-07T02:34:42.424Z,98048.19
2023-05-07T02:37:09.258Z,98046.41
2023-05-07T02:39:36.136Z,98048.50
2023-05-07T02:42:03.446Z,98044.81
2023-05-07T02:44:32.573Z,98039.25
2023-05-07T02:46:59.492Z,98034.37
2023-05-07T02:49:26.430Z,98040.81
2023-05-07T02:51:53.262Z,98036.31
2023-05-07T02:54:20.102Z,98047.50
2023-05-07T02:56:46.947Z,98050.41
2023-05-07T02:59:13.780Z,98051.28
2023-05-07T03:01:40.857Z,98036.19
2023-05-07T03:04:07.768Z,98045.09
2023-05-07T03:06:34.660Z,98037.88
2023-05-07T03:09:01.518Z,98050.81
2023-05-07T03:11:28.441Z,98045.03
2023-05-07T03:13:55.386Z,98051.81
2023-05-07T03:16:22.579Z,98051.63
2023-05-07T03:18:49.500Z,98059.19
2023-05-07T03:21:16.543Z,98050.06
2023-05-07T03:23:43.379Z,98055.50
2023-05-07T03:26:10.232Z,98051.88
2023-05-07T03:28:37.708Z,98053.41
2023-05-07T03:31:04.598Z,98058.78
2023-05-07T03:33:34.012Z,98058.53
2023-05-07T03:36:00.913Z,98060.78
2023-05-07T03:38:27.765Z,98070.06
2023-05-07T03:40:54.624Z,98072.63
2023-05-07T03:43:21.440Z,98070.66
2023-05-07T03:45:48.365Z,98069.12
2023-05-07T03:48:15.228Z,98064.69
2023-05-07T03:50:42.345Z,98062.97
2023-05-07T03:53:09.437Z,98064.47
2023-05-07T03:55:36.784Z,98064.41
2023-05-07T03:58:03.631Z,98068.97
2023-05-07T04:00:34.696Z,98068.41
2023-05-07T04:03:01.664Z,98074.88
2023-05-07T04:05:28.649Z,98076.59
2023-05-07T04:07:55.658Z,98077.19
2023-05-07T04:10:22.560Z,98076.84
2023-05-07T04:12:49.488Z,98076.81
2023-05-07T04:15:16.528Z,98080.78
2023-05-07T04:17:43.455Z,98077.56
2023-05-07T04:20:11.921Z,98088.34
2023-05-07T04:22:38.941Z,98089.53
2023-05-07T04:25:06.242Z,98088.97
2023-05-07T04:27:33.610Z,98089.91
2023-05-07T04:30:01.890Z,98090.09
2023-05-07T04:32:30.258Z,98094.19
2023-05-07T04:34:57.755Z,98096.06
2023-05-07T04:37:26.992Z,98100.06
2023-05-07T04:39:53.852Z,98106.81
2023-05-07T04:42:20.764Z,98102.41
2023-05-07T04:44:47.610Z,98104.47
2023-05-07T04:47:14.496Z,98110.47
2023-05-07T04:49:41.341Z,98115.91
2023-05-07T04:52:08.183Z,98106.88
2023-05-07T04:54:34.969Z,98109.38
2023-05-07T04:57:01.829Z,98114.91
2023-05-07T04:59:28.679Z,98123.47
2023-05-07T05:01:55.579Z,98117.66
2023-05-07T05:04:23.952Z,98117.25
2023-05-07T05:06:51.070Z,98113.38
2023-05-07T05:09:17.939Z,98117.28
2023-05-07T05:11:45.016Z,98123.22
2023-05-07T05:14:11.847Z,98126.16
2023-05-07T05:16:38.811Z,98124.00
2023-05-07T05:19:05.863Z,98130.44
2023-05-07T05:21:33.061Z,98127.66
2023-05-07T05:24:00.060Z,98124.34
2023-05-07T05:26:26.955Z,98124.63
2023-05-07T05:28:53.792Z,98120.19
2023-05-07T05:31:20.693Z,98117.13
2023-05-07T05:33:47.567Z,98131.09
2023-05-07T05:36:14.554Z,98128.72
2023-05-07T05:38:41.634Z,98130.28
2023-05-07T05:41:08.502Z,98135.44
2023-05-07T05:43:35.602Z,98135.09
2023-05-07T05:46:02.501Z,98136.72
2023-05-07T05:48:30.715Z,98147.28
2023-05-07T05:50:57.555Z,98142.94
2023-05-07T05:53:24.398Z,98141.78
2023-05-07T05:55:51.393Z,98146.28
2023-05-07T05:58:18.234Z,98148.13
2023-05-07T06:00:46.064Z,98157.28
2023-05-07T06:03:14.405Z,98159.31
2023-05-07T06:05:41.451Z,98152.81
2023-05-07T06:08:08.757Z,98160.16
2023-05-07T06:10:39.878Z,98160.72
2023-05-07T06:13:06.795Z,98153.53
2023-05-07T06:15:33.686Z,98152.62
2023-05-07T06:18:00.702Z,98156.13
2023-05-07T06:20:27.569Z,98157.56
2023-05-07T06:22:54.463Z,98161.16
2023-05-07T06:25:21.314Z,98162.19
2023-05-07T06:27:48.193Z,98152.97
2023-05-07T06:30:15.318Z,98146.25
2023-05-07T06:32:42.398Z,98159.13
2023-05-07T06:35:09.717Z,98158.16
2023-05-07T06:37:39.389Z,98152.94
2023-05-07T06:40:07.575Z,98155.41
2023-05-07T06:42:34.462Z,98155.84
2023-05-07T06:45:01.327Z,98161.41
2023-05-07T06:47:28.273Z,98165.53
2023-05-07T06:49:55.203Z,98161.66
2023-05-07T06:52:22.140Z,98159.09
2023-05-07T06:54:49.041Z,98161.19
2023-05-07T06:57:15.891Z,98165.31
2023-05-07T06:59:42.746Z,98173.28
2023-05-07T07:02:09.757Z,98163.31
2023-05-07T07:04:36.758Z,98161.63
2023-05-07T07:07:03.664Z,98154.53
2023-05-07T07:09:30.568Z,98155.94
2023-05-07T07:11:57.364Z,98161.72
2023-05-07T07:14:24.203Z,98170.94
2023-05-07T07:16:51.134Z,98169.63
2023-05-07T07:19:18.215Z,98168.91
2023-05-07T07:21:46.037Z,98172.19
2023-05-07T07:24:14.699Z,98169.69
2023-05-07T07:26:41.548Z,98174.78
2023-05-07T07:29:08.366Z,98169.78
2023-05-07T07:31:35.278Z,98177.75
2023-05-07T07:34:02.183Z,98180.44
2023-05-07T07:36:42.530Z,98183.50
2023-05-07T07:39:12.749Z,98181.19
2023-05-07T07:41:39.606Z,98179.28
2023-05-07T07:44:08.691Z,98178.09
2023-05-07T07:46:35.999Z,98178.13
2023-05-07T07:49:02.985Z,98182.22
2023-05-07T07:51:29.810Z,98182.66
2023-05-07T07:53:58.774Z,98185.13
2023-05-07T07:56:25.962Z,98182.69
2023-05-07T07:58:52.768Z,98180.41
2023-05-07T08:01:19.577Z,98177.91
2023-05-07T08:03:46.491Z,98176.31
2023-05-07T08:06:15.264Z,98178.91
2023-05-07T08:08:42.266Z,98183.19
2023-05-07T08:11:09.133Z,98182.88
2023-05-07T08:13:36.153Z,98174.00
2023-05-07T08:16:03.130Z,98183.41
2023-05-07T08:18:30.171Z,98189.28
2023-05-07T08:20:57.170Z,98188.94
2023-05-07T08:23:24.054Z,98188.16
2023-05-07T08:25:51.077Z,98189.97
2023-05-07T08:28:17.960Z,98185.75
2023-05-07T08:30:44.878Z,98189.75
2023-05-07T08:33:11.952Z,98193.22
2023-05-07T08:35:38.836Z,98191.41
2023-05-07T08:38:05.704Z,98190.34
2023-05-07T08:40:39.497Z,98188.88
2023-05-07T08:43:08.010Z,98184.47
2023-05-07T08:45:36.036Z,98188.41
2023-05-07T08:48:04.722Z,98186.78
2023-05-07T08:50:31.642Z,98183.69
2023-05-07T08:52:58.657Z,98187.37
2023-05-07T08:55:25.903Z,98184.94
2023-05-07T08:57:54.178Z,98188.19
2023-05-07T09:00:21.328Z,98188.28
2023-05-07T09:02:48.269Z,98185.34
2023-05-07T09:05:15.479Z,98182.84
2023-05-07T09:07:42.377Z,98190.69
2023-05-07T09:10:09.785Z,98199.56
2023-05-07T09:12:37.447Z,98196.25
2023-05-07T09:15:04.975Z,98195.44
2023-05-07T09:17:31.910Z,98188.56
2023-05-07T09:20:04.876Z,98197.22
2023-05-07T09:22:37.075Z,98188.50
2023-05-07T09:25:04.180Z,98186.84
2023-05-07T09:27:31.949Z,98188.50
2023-05-07T09:29:58.829Z,98187.37
2023-05-07T09:32:26.510Z,98186.22
2023-05-07T09:34:53.551Z,98196.34
2023-05-07T09:37:20.811Z,98183.28
2023-05-07T09:39:50.078Z,98185.69
2023-05-07T09:42:17.061Z,98192.25
2023-05-07T09:44:46.902Z,98190.19
2023-05-07T09:47:19.758Z,98189.44
2023-05-07T09:49:51.235Z,98189.97
2023-05-07T09:52:18.363Z,98183.03
2023-05-07T09:54:46.907Z,98184.66
2023-05-07T09:57:14.080Z,98190.62
2023-05-07T09:59:43.763Z,98190.31
2023-05-07T10:02:11.584Z,98185.69
2023-05-07T10:04:38.517Z,98193.09
2023-05-07T10:07:06.100Z,98189.00
2023-05-07T10:09:33.405Z,98189.84
2023-05-07T10:12:00.705Z,98186.81
2023-05-07T10:14:29.416Z,98188.41
2023-05-07T10:16:56.421Z,98185.88
2023-05-07T10:19:23.491Z,98190.97
2023-05-07T10:21:57.888Z,98192.34
2023-05-07T10:24:32.721Z,98185.63
2023-05-07T10:27:00.541Z,98184.84
2023-05-07T10:29:52.333Z,98187.00
2023-05-07T10:32:41.509Z,98182.91
2023-05-07T10:35:13.539Z,98183.03
2023-05-07T10:37:41.165Z,98178.53
2023-05-07T10:40:08.723Z,98177.16
2023-05-07T10:42:35.662Z,98177.63
2023-05-07T10:45:16.749Z,98180.75
2023-05-07T10:48:29.441Z,98181.56
2023-05-07T10:51:19.950Z,98180.81
2023-05-07T10:53:46.825Z,98169.75
2023-05-07T10:56:19.818Z,98174.53
2023-05-07T10:58:46.774Z,98176.03
2023-05-07T11:01:15.607Z,98170.84
2023-05-07T11:04:16.815Z,98178.19
2023-05-07T11:06:43.638Z,98177.63
2023-05-07T11:09:10.527Z,98182.81
2023-05-07T11:11:48.534Z,98178.59
2023-05-07T11:14:17.484Z,98176.56
2023-05-07T11:16:44.801Z,98189.75
2023-05-07T11:19:11.777Z,98180.25
2023-05-07T11:21:39.411Z,98185.59
2023-05-07T11:24:07.965Z,98184.16
2023-05-07T11:26:46.713Z,98188.84
2023-05-07T11:29:22.508Z,98190.66
2023-05-07T11:31:53.682Z,98184.09
2023-05-07T11:34:25.556Z,98184.50
2023-05-07T11:36:53.054Z,98182.47
2023-05-07T11:39:27.861Z,98182.34
2023-05-07T11:41:54.691Z,98177.03
2023-05-07T11:44:21.573Z,98170.53
2023-05-07T11:46:48.466Z,98178.00
2023-05-07T11:49:15.377Z,98178.84
2023-05-07T11:51:43.087Z,98180.25
2023-05-07T11:54:12.381Z,98183.06
2023-05-07T11:56:40.144Z,98176.62
2023-05-07T11:59:07.393Z,98182.53
2023-05-07T12:01:36.642Z,98187.13
2023-05-07T12:04:04.753Z,98185.00
2023-05-07T12:06:32.143Z,98182.09
2023-05-07T12:08:58.964Z,98189.75
2023-05-07T12:11:27.133Z,98193.78
2023-05-07T12:13:59.036Z,98194.09
2023-05-07T12:16:26.524Z,98192.72
2023-05-07T12:18:56.287Z,98192.31
2023-05-07T12:21:23.430Z,98191.75
2023-05-07T12:23:50.314Z,98189.78
2023-05-07T12:26:17.222Z,98178.16
2023-05-07T12:28:44.090Z,98182.03
2023-05-07T12:31:11.657Z,98182.75
2023-05-07T12:33:38.649Z,98185.47
2023-05-07T12:36:08.549Z,98184.25
2023-05-07T12:38:39.914Z,98185.88
2023-05-07T12:41:08.436Z,98190.62
2023-05-07T12:43:35.476Z,98183.03
2023-05-07T12:46:05.462Z,98192.84
2023-05-07T12:48:33.258Z,98183.72
2023-05-07T12:51:03.616Z,98183.28
2023-05-07T12:53:32.304Z,98177.72
2023-05-07T12:56:01.060Z,98175.44
2023-05-07T12:58:31.637Z,98179.22
2023-05-07T13:01:01.023Z,98173.09
2023-05-07T13:03:36.006Z,98168.88
2023-05-07T13:06:07.382Z,98167.59
2023-05-07T13:08:49.514Z,98161.69
2023-05-07T13:11:16.687Z,98159.69
2023-05-07T13:13:43.583Z,98153.75
2023-05-07T13:16:12.284Z,98150.84
2023-05-07T13:18:41.044Z,98147.94
2023-05-07T13:21:08.186Z,98150.69
2023-05-07T13:23:35.186Z,98148.00
2023-05-07T13:26:08.486Z,98147.00
2023-05-07T13:28:38.481Z,98155.97
2023-05-07T13:31:05.358Z,98144.59
2023-05-07T13:33:32.268Z,98149.06
2023-05-07T13:35:59.196Z,98142.25
2023-05-07T13:38:26.122Z,98143.97
2023-05-07T13:40:52.990Z,98143.16
2023-05-07T13:43:20.244Z,98129.28
2023-05-07T13:45:47.158Z,98133.72
2023-05-07T13:48:14.251Z,98134.31
2023-05-07T13:50:41.152Z,98127.72
2023-05-07T13:53:09.195Z,98127.53
2023-05-07T13:55:36.060Z,98118.06
2023-05-07T13:58:06.917Z,98126.16
2023-05-07T14:00:34.255Z,98127.81
2023-05-07T14:03:01.211Z,98129.62
2023-05-07T14:05:29.190Z,98133.94
2023-05-07T14:07:58.366Z,98124.50
2023-05-07T14:10:25.661Z,98128.69
2023-05-07T14:12:53.903Z,98123.72
2023-05-07T14:15:21.000Z,98122.72
2023-05-07T14:17:48.146Z,98134.34
2023-05-07T14:20:15.420Z,98123.72
2023-05-07T14:22:42.497Z,98126.16
2023-05-07T14:25:10.938Z,98129.97
2023-05-07T14:27:38.056Z,98130.12
2023-05-07T14:30:05.218Z,98124.13
2023-05-07T14:32:32.119Z,98124.78
2023-05-07T14:34:59.016Z,98129.44
2023-05-07T14:37:25.888Z,98131.00
2023-05-07T14:39:52.892Z,98143.19
2023-05-07T14:42:19.732Z,98142.50
2023-05-07T14:44:47.686Z,98136.09
2023-05-07T14:47:14.723Z,98134.25
2023-05-07T14:49:43.054Z,98138.00
2023-05-07T14:52:11.286Z,98135.00
2023-05-07T14:54:39.278Z,98133.19
2023-05-07T14:57:07.388Z,98134.75
2023-05-07T14:59:34.259Z,98131.91
2023-05-07T15:02:02.469Z,98136.31
2023-05-07T15:04:30.822Z,98138.78
2023-05-07T15:06:57.815Z,98145.62
2023-05-07T15:09:24.686Z,98142.88
2023-05-07T15:11:51.541Z,98130.16
2023-05-07T15:14:18.528Z,98140.38
2023-05-07T15:16:46.757Z,98141.63
2023-05-07T15:19:16.037Z,98131.94
2023-05-07T15:21:42.913Z,98139.19
2023-05-07T15:24:10.332Z,98145.00
2023-05-07T15:26:37.421Z,98137.31
2023-05-07T15:29:09.218Z,98140.63
2023-05-07T15:31:36.188Z,98137.88
2023-05-07T15:34:03.013Z,98137.50
2023-05-07T15:36:29.948Z,98139.09
2023-05-07T15:38:56.877Z,98139.16
2023-05-07T15:41:23.749Z,98137.56
2023-05-07T15:43:52.093Z,98137.03
2023-05-07T15:46:20.527Z,98121.38
2023-05-07T15:48:47.755Z,98123.56
2023-05-07T15:51:14.660Z,98125.34
2023-05-07T15:53:41.528Z,98129.75
2023-05-07T15:56:08.582Z,98126.37
2023-05-07T15:58:36.479Z,98122.28
2023-05-07T16:01:04.141Z,98129.19
2023-05-07T16:03:31.567Z,98125.81
2023-05-07T16:06:00.917Z,98130.12
2023-05-07T16:08:27.891Z,98130.97
2023-05-07T16:10:55.133Z,98133.44
2023-05-07T16:13:22.107Z,98139.47
2023-05-07T16:15:49.229Z,98131.81
2023-05-07T16:18:16.440Z,98135.03
2023-05-07T16:20:44.004Z,98128.94
2023-05-07T16:23:10.886Z,98134.97
2023-05-07T16:25:37.745Z,98131.66
2023-05-07T16:28:04.692Z,98134.69
2023-05-07T16:30:31.615Z,98128.44
2023-05-07T16:32:58.503Z,98134.22
2023-05-07T16:35:25.552Z,98128.28
2023-05-07T16:37:53.173Z,98132.81
2023-05-07T16:40:19.993Z,98131.72
2023-05-07T16:42:46.873Z,98125.87
2023-05-07T16:45:13.893Z,98131.94
2023-05-07T16:47:40.985Z,98131.56
2023-05-07T16:50:08.237Z,98128.31
2023-05-07T16:52:35.106Z,98133.44
2023-05-07T16:55:02.062Z,98139.44
2023-05-07T16:57:31.647Z,98134.03
2023-05-07T17:00:00.133Z,98135.94
2023-05-07T17:02:27.626Z,98138.44
2023-05-07T17:04:54.849Z,98131.22
2023-05-07T17:07:21.740Z,98136.91
2023-05-07T17:09:48.642Z,98138.47
2023-05-07T17:12:15.614Z,98142.97
2023-05-07T17:14:42.507Z,98149.34
2023-05-07T17:17:09.376Z,98147.78
2023-05-07T17:19:39.956Z,98162.34
2023-05-07T17:22:07.113Z,98160.25
2023-05-07T17:24:33.970Z,98155.00
2023-05-07T17:27:00.888Z,98159.16
2023-05-07T17:29:27.786Z,98161.22
2023-05-07T17:31:54.648Z,98172.19
2023-05-07T17:34:21.505Z,98165.00
2023-05-07T17:36:48.361Z,98175.31
2023-05-07T17:39:15.175Z,98179.41
2023-05-07T17:41:42.030Z,98175.28
2023-05-07T17:44:08.882Z,98187.00
2023-05-07T17:46:35.835Z,98187.84
2023-05-07T17:49:02.691Z,98185.81
2023-05-07T17:51:36.040Z,98191.59
2023-05-07T17:54:06.110Z,98205.41
2023-05-07T17:56:32.949Z,98197.63
2023-05-07T17:58:59.846Z,98193.13
2023-05-07T18:01:26.962Z,98204.81
2023-05-07T18:03:54.034Z,98208.13
2023-05-07T18:06:23.312Z,98212.78
2023-05-07T18:08:50.263Z,98223.25
2023-05-07T18:11:17.116Z,98222.16
2023-05-07T18:13:43.971Z,98220.91
2023-05-07T18:16:10.888Z,98220.50
2023-05-07T18:18:37.853Z,98229.84
2023-05-07T18:21:04.729Z,98226.41
2023-05-07T18:23:33.800Z,98224.13
2023-05-07T18:26:00.744Z,98231.66
2023-05-07T18:28:27.636Z,98235.66
2023-05-07T18:30:54.455Z,98235.78
2023-05-07T18:33:21.303Z,98239.84
2023-05-07T18:35:48.125Z,98238.03
2023-05-07T18:38:14.960Z,98245.06
2023-05-07T18:40:44.198Z,98249.06
2023-05-07T18:43:11.410Z,98254.09
2023-05-07T18:45:38.534Z,98265.66
2023-05-07T18:48:06.987Z,98261.13
2023-05-07T18:50:34.257Z,98267.25
2023-05-07T18:53:01.772Z,98253.78
2023-05-07T18:55:28.808Z,98268.25
2023-05-07T18:57:55.599Z,98264.56
2023-05-07T19:00:22.598Z,98265.53
2023-05-07T19:02:49.474Z,98275.12
2023-05-07T19:05:18.537Z,98275.34
2023-05-07T19:07:47.261Z,98277.16
2023-05-07T19:10:14.878Z,98275.56
2023-05-07T19:12:41.798Z,98274.53
2023-05-07T19:15:09.651Z,98281.03
2023-05-07T19:17:36.570Z,98283.31
2023-05-07T19:20:04.628Z,98282.34
2023-05-07T19:22:31.535Z,98274.44
2023-05-07T19:24:58.413Z,98271.63
2023-05-07T19:27:25.442Z,98276.03
2023-05-07T19:29:52.349Z,98282.00
2023-05-07T19:32:21.495Z,98281.16
2023-05-07T19:34:48.535Z,98287.28
2023-05-07T19:37:15.632Z,98292.72
2023-05-07T19:39:42.606Z,98290.59
2023-05-07T19:42:09.491Z,98291.19
2023-05-07T19:44:36.388Z,98283.56
2023-05-07T19:47:03.838Z,98297.28
2023-05-07T19:49:30.687Z,98297.16
2023-05-07T19:51:57.529Z,98286.63
2023-05-07T19:54:24.455Z,98303.34
2023-05-07T19:56:51.306Z,98306.34
2023-05-07T19:59:18.185Z,98302.78
2023-05-07T20:01:45.058Z,98303.63
2023-05-07T20:04:11.919Z,98298.34
2023-05-07T20:06:38.760Z,98308.28
2023-05-07T20:09:06.482Z,98303.63
2023-05-07T20:11:33.432Z,98306.88
2023-05-07T20:14:00.299Z,98306.56
2023-05-07T20:16:27.169Z,98309.25
2023-05-07T20:18:54.000Z,98309.59
2023-05-07T20:21:20.910Z,98305.78
2023-05-07T20:23:47.824Z,98304.56
2023-05-07T20:26:14.675Z,98305.44
2023-05-07T20:28:41.554Z,98305.66
2023-05-07T20:31:08.427Z,98304.56
2023-05-07T20:33:35.773Z,98299.91
2023-05-07T20:36:02.622Z,98310.03
2023-05-07T20:38:33.921Z,98299.94
2023-05-07T20:41:11.926Z,98307.44
2023-05-07T20:43:38.931Z,98315.25
2023-05-07T20:46:07.957Z,98316.78
2023-05-07T20:48:35.085Z,98317.47
2023-05-07T20:51:02.768Z,98318.53
2023-05-07T20:53:30.589Z,98318.25
2023-05-07T20:55:57.795Z,98320.91
2023-05-07T20:58:26.003Z,98327.19
2023-05-07T21:00:53.556Z,98336.47
2023-05-07T21:03:20.831Z,98330.25
2023-05-07T21:05:54.740Z,98333.81
2023-05-07T21:08:21.623Z,98336.47
2023-05-07T21:10:49.406Z,98341.19
2023-05-07T21:13:16.423Z,98348.44
2023-05-07T21:15:43.447Z,98340.41
2023-05-07T21:18:13.626Z,98349.03
2023-05-07T21:20:40.832Z,98359.94
2023-05-07T21:23:07.771Z,98357.13
2023-05-07T21:25:37.908Z,98366.62
2023-05-07T21:28:09.038Z,98375.00
2023-05-07T21:30:37.049Z,98374.47
2023-05-07T21:33:05.570Z,98379.44
2023-05-07T21:35:35.163Z,98383.13
2023-05-07T21:38:02.791Z,98385.53
2023-05-07T21:40:29.756Z,98383.50
2023-05-07T21:42:56.587Z,98393.75
2023-05-07T21:45:23.485Z,98390.44
2023-05-07T21:47:50.590Z,98388.94
2023-05-07T21:50:17.601Z,98379.00
2023-05-07T21:52:44.455Z,98382.06
2023-05-07T21:55:11.700Z,98387.38
2023-05-07T21:57:43.513Z,98384.56
2023-05-07T22:00:13.303Z,98379.22
2023-05-07T22:02:40.515Z,98375.44
2023-05-07T22:05:07.741Z,98389.62
2023-05-07T22:07:34.594Z,98403.94
2023-05-07T22:10:01.678Z,98407.19
2023-05-07T22:12:28.549Z,98407.37
2023-05-07T22:14:55.433Z,98409.22
2023-05-07T22:17:24.582Z,98409.31
2023-05-07T22:19:51.760Z,98413.13
2023-05-07T22:22:19.367Z,98431.37
2023-05-07T22:24:46.625Z,98436.66
2023-05-07T22:27:13.464Z,98450.97
2023-05-07T22:29:40.903Z,98447.50
2023-05-07T22:32:08.842Z,98456.03
2023-05-07T22:34:37.444Z,98442.50
2023-05-07T22:37:04.312Z,98452.31
2023-05-07T22:39:34.542Z,98448.34
2023-05-07T22:42:02.410Z,98438.81
2023-05-07T22:44:29.434Z,98453.50
2023-05-07T22:46:56.340Z,98449.97
2023-05-07T22:49:23.167Z,98448.03
2023-05-07T22:51:49.831Z,98438.31
2023-05-07T22:54:16.740Z,98440.28
2023-05-07T22:56:43.718Z,98426.97
2023-05-07T22:59:10.581Z,98437.53
2023-05-07T23:01:37.472Z,98427.31
2023-05-07T23:04:04.337Z,98431.56
2023-05-07T23:06:31.359Z,98435.47
2023-05-07T23:08:59.048Z,98442.66
2023-05-07T23:11:26.578Z,98445.97
2023-05-07T23:13:53.507Z,98446.53
2023-05-07T23:16:20.407Z,98442.88
2023-05-07T23:18:48.013Z,98444.34
2023-05-07T23:21:14.882Z,98444.97
2023-05-07T23:23:41.747Z,98433.47
2023-05-07T23:26:08.627Z,98437.87
2023-05-07T23:28:35.527Z,98441.25
2023-05-07T23:31:02.388Z,98439.84
2023-05-07T23:33:29.266Z,98451.63
2023-05-07T23:36:03.891Z,98451.81
2023-05-07T23:38:31.117Z,98446.81
2023-05-07T23:40:57.968Z,98448.16
2023-05-07T23:43:24.886Z,98440.81
2023-05-07T23:45:51.795Z,98438.31
2023-05-07T23:48:18.870Z,98432.38
2023-05-07T23:50:45.746Z,98436.00
2023-05-07T23:53:12.632Z,98434.41
2023-05-07T23:55:39.470Z,98439.47
2023-05-07T23:58:06.348Z,98448.59
